Time;durP1;ratioP1;P1;durP2;ratioP2;P2;SDS_P1;SDS_P2;PMS_P1;PMS_P2;Temp;Humidity;BMP_temperature;BMP_pressure;BME280_temperature;BME280_humidity;BME280_pressure;Samples;Min_cycle;Max_cycle;Signal;HPM_P1;HPM_P2
2023/02/03 00:01:30;;;;;;;15.40;6.85;;;;;;;;;;5008339;28;20410;-80
2023/02/03 00:03:56;;;;;;;14.05;6.93;;;;;;;;;;5009254;28;20390;-79
2023/02/03 00:06:22;;;;;;;12.77;6.10;;;;;;;;;;5009091;28;20386;-79
2023/02/03 00:08:49;;;;;;;16.63;6.57;;;;;;;;;;5008706;28;20367;-81
2023/02/03 00:11:15;;;;;;;14.55;6.32;;;;;;;;;;5009271;28;20375;-80
2023/02/03 00:13:41;;;;;;;14.77;6.77;;;;;;;;;;5006362;28;20377;-81
2023/02/03 00:16:07;;;;;;;14.85;6.88;;;;;;;;;;5009192;28;20383;-80
2023/02/03 00:18:33;;;;;;;16.33;7.00;;;;;;;;;;5008824;28;20418;-80
2023/02/03 00:20:59;;;;;;;17.45;7.03;;;;;;;;;;5005264;28;20375;-80
2023/02/03 00:23:28;;;;;;;17.17;7.40;;;;;;;;;;5007199;28;20470;-79
2023/02/03 00:25:54;;;;;;;19.17;6.90;;;;;;;;;;5008961;28;20493;-79
2023/02/03 00:28:20;;;;;;;17.73;7.28;;;;;;;;;;5006841;28;20889;-79
2023/02/03 00:30:46;;;;;;;17.63;7.53;;;;;;;;;;5008620;28;20398;-80
2023/02/03 00:33:13;;;;;;;19.83;8.23;;;;;;;;;;5008413;28;20432;-80
2023/02/03 00:35:39;;;;;;;19.48;8.00;;;;;;;;;;5008822;28;20379;-80
2023/02/03 00:38:05;;;;;;;18.27;7.95;;;;;;;;;;5007991;28;20460;-79
2023/02/03 00:40:31;;;;;;;19.42;8.80;;;;;;;;;;5008712;28;20517;-80
2023/02/03 00:42:57;;;;;;;21.30;9.13;;;;;;;;;;5007553;28;20474;-80
2023/02/03 00:45:23;;;;;;;20.75;8.90;;;;;;;;;;5007620;28;20372;-80
2023/02/03 00:47:49;;;;;;;20.85;9.82;;;;;;;;;;5005416;28;20375;-80
2023/02/03 00:50:15;;;;;;;22.02;9.45;;;;;;;;;;5009039;28;20387;-81
2023/02/03 00:52:41;;;;;;;22.40;10.20;;;;;;;;;;5008732;28;20371;-81
2023/02/03 00:55:08;;;;;;;20.92;9.80;;;;;;;;;;5008848;28;20441;-81
2023/02/03 00:57:34;;;;;;;25.07;11.00;;;;;;;;;;5007923;28;20468;-79
2023/02/03 01:00:00;;;;;;;25.15;10.63;;;;;;;;;;5009193;28;20386;-79
2023/02/03 01:02:26;;;;;;;20.77;10.23;;;;;;;;;;5008260;28;20383;-80
2023/02/03 01:04:52;;;;;;;24.15;10.80;;;;;;;;;;5004025;28;20372;-80
2023/02/03 01:07:18;;;;;;;24.30;11.00;;;;;;;;;;4989416;28;20389;-80
2023/02/03 01:09:44;;;;;;;26.97;12.03;;;;;;;;;;4989540;28;20586;-80
2023/02/03 01:12:10;;;;;;;27.23;11.50;;;;;;;;;;4990158;28;20440;-80
2023/02/03 01:14:36;;;;;;;23.50;11.57;;;;;;;;;;4989421;28;20467;-80
2023/02/03 01:17:02;;;;;;;22.05;12.27;;;;;;;;;;4986860;28;20409;-80
2023/02/03 01:19:28;;;;;;;23.88;12.02;;;;;;;;;;4987220;28;20395;-81
2023/02/03 01:21:54;;;;;;;24.65;11.90;;;;;;;;;;4999251;28;20469;-81
2023/02/03 01:24:20;;;;;;;22.17;11.97;;;;;;;;;;5009024;28;20474;-81
2023/02/03 01:26:46;;;;;;;27.30;12.65;;;;;;;;;;5008581;28;20397;-81
2023/02/03 01:29:12;;;;;;;25.23;12.52;;;;;;;;;;5012594;28;20932;-81
2023/02/03 01:31:39;;;;;;;26.40;13.32;;;;;;;;;;5011602;28;20878;-81
2023/02/03 01:34:10;;;;;;;27.77;12.27;;;;;;;;;;5012106;28;20399;-81
2023/02/03 01:39:10;;;;;;;24.52;11.85;;;;;;;;;;5009068;28;20415;-80
2023/02/03 01:41:38;;;;;;;23.37;11.47;;;;;;;;;;5013605;28;20371;-79
2023/02/03 01:44:22;;;;;;;21.88;11.90;;;;;;;;;;5013096;28;20470;-80
2023/02/03 01:46:50;;;;;;;20.95;11.60;;;;;;;;;;5012903;28;20379;-79
2023/02/03 01:49:27;;;;;;;21.10;12.33;;;;;;;;;;5013805;28;20426;-79
2023/02/03 01:51:53;;;;;;;22.25;12.07;;;;;;;;;;5013686;28;20470;-80
2023/02/03 01:54:31;;;;;;;19.13;11.23;;;;;;;;;;5011472;28;20383;-81
2023/02/03 01:57:02;;;;;;;20.35;11.73;;;;;;;;;;5003475;28;20417;-80
2023/02/03 01:59:29;;;;;;;19.67;10.80;;;;;;;;;;5002320;28;20422;-80
2023/02/03 02:01:55;;;;;;;22.50;10.82;;;;;;;;;;5009716;28;20422;-80
2023/02/03 02:04:22;;;;;;;18.35;10.40;;;;;;;;;;5012692;28;20460;-80
2023/02/03 02:06:50;;;;;;;17.20;9.80;;;;;;;;;;5011333;28;20466;-80
2023/02/03 02:09:16;;;;;;;15.63;10.07;;;;;;;;;;5012705;28;20379;-80
2023/02/03 02:11:42;;;;;;;14.20;9.38;;;;;;;;;;5012960;28;20850;-80
2023/02/03 02:14:08;;;;;;;15.10;9.05;;;;;;;;;;5012310;28;20375;-79
2023/02/03 02:16:34;;;;;;;12.10;8.77;;;;;;;;;;5012045;28;20370;-80
2023/02/03 02:19:19;;;;;;;15.15;9.20;;;;;;;;;;5011864;28;20387;-80
2023/02/03 02:21:48;;;;;;;15.15;9.35;;;;;;;;;;5012530;28;20383;-80
2023/02/03 02:24:23;;;;;;;11.93;8.80;;;;;;;;;;5012691;28;20388;-81
2023/02/03 02:26:52;;;;;;;13.18;8.45;;;;;;;;;;5011745;28;20413;-80
2023/02/03 02:29:24;;;;;;;11.68;8.68;;;;;;;;;;5012269;28;20379;-79
2023/02/03 02:31:59;;;;;;;12.82;8.88;;;;;;;;;;5012183;28;20395;-81
2023/02/03 02:34:34;;;;;;;12.73;8.45;;;;;;;;;;5012158;28;20769;-79
2023/02/03 02:37:03;;;;;;;14.40;8.43;;;;;;;;;;5011619;28;20413;-80
2023/02/03 02:39:29;;;;;;;11.48;7.88;;;;;;;;;;5007772;28;20790;-81
2023/02/03 02:42:02;;;;;;;11.93;7.80;;;;;;;;;;5012045;28;20466;-80
2023/02/03 02:44:37;;;;;;;11.07;7.57;;;;;;;;;;5011571;28;20924;-80
2023/02/03 02:47:09;;;;;;;10.68;7.80;;;;;;;;;;5011047;28;20453;-80
2023/02/03 02:49:40;;;;;;;8.85;7.07;;;;;;;;;;5011473;28;21028;-80
2023/02/03 02:52:08;;;;;;;11.63;7.20;;;;;;;;;;5010942;28;20846;-80
2023/02/03 02:54:36;;;;;;;9.65;6.70;;;;;;;;;;5011526;28;20371;-80
2023/02/03 02:57:03;;;;;;;9.48;6.97;;;;;;;;;;5011301;28;20407;-79
2023/02/03 02:59:29;;;;;;;9.20;7.35;;;;;;;;;;5010539;28;20403;-80
2023/02/03 03:01:55;;;;;;;10.73;7.57;;;;;;;;;;5009942;28;20391;-80
2023/02/03 03:04:26;;;;;;;9.45;7.25;;;;;;;;;;5010503;28;20790;-81
2023/02/03 03:07:00;;;;;;;8.73;7.45;;;;;;;;;;5010827;28;20469;-80
2023/02/03 03:09:34;;;;;;;9.88;7.40;;;;;;;;;;5010962;28;20378;-80
2023/02/03 03:12:13;;;;;;;11.00;8.02;;;;;;;;;;5009738;28;20470;-81
2023/02/03 03:14:41;;;;;;;9.20;7.47;;;;;;;;;;5011213;28;20371;-79
2023/02/03 03:17:08;;;;;;;9.40;7.80;;;;;;;;;;5010618;28;20422;-81
2023/02/03 03:19:37;;;;;;;11.75;7.32;;;;;;;;;;5009960;28;20379;-78
2023/02/03 03:22:05;;;;;;;7.78;6.53;;;;;;;;;;5010846;28;20865;-80
2023/02/03 03:24:33;;;;;;;8.57;6.80;;;;;;;;;;5011214;28;20780;-80
2023/02/03 03:27:05;;;;;;;9.23;7.13;;;;;;;;;;5009899;28;20711;-80
2023/02/03 03:29:43;;;;;;;7.20;6.37;;;;;;;;;;5010826;28;20433;-82
2023/02/03 03:32:09;;;;;;;7.43;6.05;;;;;;;;;;5011583;28;20390;-80
2023/02/03 03:34:35;;;;;;;6.68;6.07;;;;;;;;;;5010385;28;20379;-81
2023/02/03 03:37:01;;;;;;;7.00;6.30;;;;;;;;;;5010785;28;20407;-80
2023/02/03 03:39:34;;;;;;;6.82;6.13;;;;;;;;;;5010485;28;20410;-79
2023/02/03 03:42:03;;;;;;;7.45;6.68;;;;;;;;;;5003107;28;20669;-80
2023/02/03 03:44:33;;;;;;;8.80;7.00;;;;;;;;;;4990677;28;20404;-80
2023/02/03 03:47:05;;;;;;;8.38;6.80;;;;;;;;;;4991490;28;20784;-81
2023/02/03 03:49:33;;;;;;;8.00;7.18;;;;;;;;;;4991525;28;20392;-80
2023/02/03 03:52:02;;;;;;;8.32;7.43;;;;;;;;;;4991987;28;20373;-80
2023/02/03 03:54:29;;;;;;;10.10;8.50;;;;;;;;;;4996282;28;20379;-81
2023/02/03 03:56:58;;;;;;;12.73;10.00;;;;;;;;;;5010256;28;20418;-80
2023/02/03 03:59:25;;;;;;;11.63;9.98;;;;;;;;;;5010271;28;20375;-81
2023/02/03 04:01:52;;;;;;;11.90;9.95;;;;;;;;;;5010229;28;20371;-80
2023/02/03 04:04:18;;;;;;;10.87;9.77;;;;;;;;;;5010841;28;20454;-80
2023/02/03 04:06:44;;;;;;;12.10;10.30;;;;;;;;;;5010411;28;20389;-81
2023/02/03 04:09:10;;;;;;;14.15;12.20;;;;;;;;;;5000582;28;20391;-80
2023/02/03 04:14:38;;;;;;;19.63;15.70;;;;;;;;;;4899088;29;20745;-80
2023/02/03 04:17:04;;;;;;;21.20;16.00;;;;;;;;;;4970360;28;20413;-79
2023/02/03 04:19:30;;;;;;;20.42;15.85;;;;;;;;;;4990423;28;20756;-79
2023/02/03 04:21:56;;;;;;;23.37;17.80;;;;;;;;;;4990873;28;20377;-79
2023/02/03 04:24:23;;;;;;;26.30;19.90;;;;;;;;;;4991066;28;20719;-79
2023/02/03 04:26:49;;;;;;;32.03;22.58;;;;;;;;;;4990513;28;20369;-79
2023/02/03 04:29:15;;;;;;;36.15;24.55;;;;;;;;;;5002770;28;20462;-80
2023/02/03 04:31:41;;;;;;;38.45;25.63;;;;;;;;;;5009845;28;20399;-80
2023/02/03 04:34:07;;;;;;;41.53;28.23;;;;;;;;;;5009962;28;20379;-79
2023/02/03 04:36:33;;;;;;;42.50;28.30;;;;;;;;;;5009803;28;20383;-80
2023/02/03 04:38:59;;;;;;;46.42;30.63;;;;;;;;;;5007563;28;20502;-80
2023/02/03 04:41:25;;;;;;;49.03;31.88;;;;;;;;;;5009873;28;20458;-79
2023/02/03 04:43:51;;;;;;;50.25;32.47;;;;;;;;;;5008524;28;20865;-79
2023/02/03 04:46:17;;;;;;;53.58;32.85;;;;;;;;;;5009378;28;20397;-80
2023/02/03 04:48:44;;;;;;;51.15;35.38;;;;;;;;;;5008621;28;20459;-80
2023/02/03 04:51:10;;;;;;;50.37;34.43;;;;;;;;;;5010248;28;20375;-80
2023/02/03 04:53:36;;;;;;;57.40;35.22;;;;;;;;;;5009993;28;20407;-80
2023/02/03 04:56:02;;;;;;;62.30;37.22;;;;;;;;;;5009647;28;20407;-79
2023/02/03 04:58:28;;;;;;;57.88;37.10;;;;;;;;;;5009333;28;20425;-79
2023/02/03 05:00:54;;;;;;;59.80;36.92;;;;;;;;;;5009470;28;20384;-79
2023/02/03 05:03:21;;;;;;;58.92;37.83;;;;;;;;;;5009114;28;20387;-80
2023/02/03 05:05:48;;;;;;;60.55;37.60;;;;;;;;;;5008303;28;20363;-80
2023/02/03 05:08:15;;;;;;;62.55;38.47;;;;;;;;;;4989774;28;20396;-80
2023/02/03 05:10:41;;;;;;;62.13;39.15;;;;;;;;;;4989902;28;20412;-79
2023/02/03 05:13:07;;;;;;;62.53;40.00;;;;;;;;;;4990306;28;20399;-79
2023/02/03 05:15:33;;;;;;;66.27;40.10;;;;;;;;;;4990075;28;20773;-80
2023/02/03 05:17:59;;;;;;;67.33;41.13;;;;;;;;;;4988486;28;20404;-80
2023/02/03 05:20:25;;;;;;;65.35;39.80;;;;;;;;;;5003270;28;20367;-80
2023/02/03 05:22:51;;;;;;;72.70;41.75;;;;;;;;;;5009434;28;20884;-80
2023/02/03 05:25:17;;;;;;;69.90;40.53;;;;;;;;;;5009366;28;20379;-80
2023/02/03 05:27:43;;;;;;;67.80;40.92;;;;;;;;;;5009282;28;20395;-81
2023/02/03 05:30:09;;;;;;;68.30;41.65;;;;;;;;;;5009268;28;20773;-80
2023/02/03 05:32:35;;;;;;;68.13;41.83;;;;;;;;;;5008775;28;20433;-79
2023/02/03 05:35:01;;;;;;;70.93;41.72;;;;;;;;;;5007537;28;20387;-79
2023/02/03 05:37:27;;;;;;;75.07;42.65;;;;;;;;;;5007378;28;20516;-80
2023/02/03 05:41:50;;;;;;;71.53;42.95;;;;;;;;;;5009122;28;20403;-80
2023/02/03 05:42:39;;;;;;;69.28;42.88;;;;;;;;;;5008660;28;20383;-80
2023/02/03 05:45:05;;;;;;;68.90;42.03;;;;;;;;;;5008332;28;20474;-80
2023/02/03 05:47:31;;;;;;;78.90;44.88;;;;;;;;;;5008718;28;20438;-79
2023/02/03 05:49:57;;;;;;;72.32;43.65;;;;;;;;;;5009103;28;20873;-80
2023/02/03 05:52:23;;;;;;;78.45;44.08;;;;;;;;;;5009009;28;20367;-79
2023/02/03 05:54:49;;;;;;;71.82;43.97;;;;;;;;;;4994682;28;20763;-79
2023/02/03 05:57:17;;;;;;;73.10;44.63;;;;;;;;;;4988352;28;20412;-79
2023/02/03 05:59:43;;;;;;;72.32;43.55;;;;;;;;;;4988191;28;20454;-78
2023/02/03 06:02:09;;;;;;;79.97;46.13;;;;;;;;;;4989264;28;20743;-78
2023/02/03 06:04:35;;;;;;;76.20;45.00;;;;;;;;;;4989055;28;20385;-80
2023/02/03 06:07:01;;;;;;;75.38;45.17;;;;;;;;;;4989234;28;20431;-79
2023/02/03 06:09:27;;;;;;;74.53;44.10;;;;;;;;;;4988929;28;20824;-80
2023/02/03 06:11:53;;;;;;;79.20;46.25;;;;;;;;;;5005282;28;20395;-81
2023/02/03 06:14:19;;;;;;;76.07;45.38;;;;;;;;;;5011164;28;20390;-81
2023/02/03 06:16:45;;;;;;;75.90;45.00;;;;;;;;;;5011758;28;20379;-80
2023/02/03 06:19:11;;;;;;;75.78;45.67;;;;;;;;;;5011920;28;20773;-80
2023/02/03 06:21:37;;;;;;;80.18;46.83;;;;;;;;;;5011829;28;20458;-81
2023/02/03 06:24:03;;;;;;;78.55;46.08;;;;;;;;;;5012220;28;20795;-81
2023/02/03 06:26:29;;;;;;;67.10;42.92;;;;;;;;;;5010938;28;20470;-81
2023/02/03 06:28:55;;;;;;;65.90;41.83;;;;;;;;;;5012295;28;20478;-80
2023/02/03 06:31:21;;;;;;;62.22;39.88;;;;;;;;;;5012934;28;20861;-80
2023/02/03 06:33:47;;;;;;;57.65;38.28;;;;;;;;;;5012647;28;20383;-80
2023/02/03 06:36:13;;;;;;;56.38;38.45;;;;;;;;;;5012701;28;20410;-81
2023/02/03 06:38:39;;;;;;;50.67;36.63;;;;;;;;;;5010257;28;20419;-80
2023/02/03 06:41:05;;;;;;;48.50;35.07;;;;;;;;;;5012498;28;20386;-81
2023/02/03 06:43:31;;;;;;;47.70;34.17;;;;;;;;;;5012501;28;20375;-79
2023/02/03 06:45:57;;;;;;;44.58;33.03;;;;;;;;;;5012051;28;20375;-80
2023/02/03 06:48:24;;;;;;;43.13;33.67;;;;;;;;;;5007168;28;20387;-79
2023/02/03 06:50:51;;;;;;;41.78;32.70;;;;;;;;;;4986558;28;20770;-80
2023/02/03 06:53:17;;;;;;;41.80;31.50;;;;;;;;;;4991719;28;20385;-80
2023/02/03 06:55:43;;;;;;;42.43;31.53;;;;;;;;;;4990001;28;20949;-81
2023/02/03 06:58:09;;;;;;;44.65;32.13;;;;;;;;;;4992232;28;20764;-81
2023/02/03 07:00:35;;;;;;;42.60;31.90;;;;;;;;;;4990637;28;20389;-81
2023/02/03 07:03:01;;;;;;;38.50;31.23;;;;;;;;;;5010312;28;20436;-81
2023/02/03 07:05:27;;;;;;;36.95;29.88;;;;;;;;;;5012244;28;20436;-81
2023/02/03 07:07:53;;;;;;;37.77;29.50;;;;;;;;;;5010886;28;20503;-80
2023/02/03 07:10:20;;;;;;;36.13;29.13;;;;;;;;;;5011498;28;20412;-82
2023/02/03 07:12:46;;;;;;;35.38;29.55;;;;;;;;;;5011753;28;20916;-81
2023/02/03 07:15:12;;;;;;;40.60;30.67;;;;;;;;;;5011863;28;20463;-81
2023/02/03 07:17:38;;;;;;;42.83;31.45;;;;;;;;;;5011476;28;20881;-81
2023/02/03 07:20:05;;;;;;;42.05;31.00;;;;;;;;;;5009135;28;20397;-82
2023/02/03 07:22:31;;;;;;;40.35;30.35;;;;;;;;;;5010289;28;20383;-82
2023/02/03 07:24:57;;;;;;;41.90;31.58;;;;;;;;;;5011157;28;20880;-82
2023/02/03 07:27:23;;;;;;;40.53;29.60;;;;;;;;;;5010805;28;20371;-82
2023/02/03 07:29:49;;;;;;;40.47;30.97;;;;;;;;;;5010039;28;20720;-82
2023/02/03 07:32:15;;;;;;;39.43;30.10;;;;;;;;;;5003655;28;20431;-82
2023/02/03 07:34:41;;;;;;;40.65;30.42;;;;;;;;;;4990031;28;20400;-80
2023/02/03 07:37:07;;;;;;;39.95;30.67;;;;;;;;;;5011064;28;20407;-81
2023/02/03 07:39:33;;;;;;;41.60;30.02;;;;;;;;;;5010898;28;20387;-82
2023/02/03 07:41:59;;;;;;;39.08;30.33;;;;;;;;;;5011487;28;20870;-82
2023/02/03 07:44:25;;;;;;;41.88;29.92;;;;;;;;;;5010355;28;20447;-80
2023/02/03 07:46:51;;;;;;;39.10;30.20;;;;;;;;;;5011421;28;20470;-80
2023/02/03 07:49:17;;;;;;;39.33;29.13;;;;;;;;;;5011159;28;20398;-80
2023/02/03 07:51:43;;;;;;;39.30;28.02;;;;;;;;;;5011039;28;20907;-81
2023/02/03 07:54:09;;;;;;;36.28;27.48;;;;;;;;;;5009829;28;20434;-81
2023/02/03 07:56:35;;;;;;;36.23;27.57;;;;;;;;;;5009272;28;20391;-81
2023/02/03 07:59:01;;;;;;;34.08;26.63;;;;;;;;;;5009972;28;20398;-81
2023/02/03 08:01:28;;;;;;;33.47;26.23;;;;;;;;;;5010788;28;20377;-80
2023/02/03 08:03:54;;;;;;;35.13;27.00;;;;;;;;;;5009819;28;20429;-81
2023/02/03 08:06:20;;;;;;;31.45;24.80;;;;;;;;;;5009128;28;20961;-82
2023/02/03 08:08:46;;;;;;;30.65;23.92;;;;;;;;;;5010308;28;20371;-80
2023/02/03 08:11:12;;;;;;;31.20;24.58;;;;;;;;;;5009798;28;20884;-81
2023/02/03 08:13:38;;;;;;;28.27;23.38;;;;;;;;;;5011133;28;20895;-80
2023/02/03 08:16:04;;;;;;;30.45;23.70;;;;;;;;;;5010718;28;20837;-80
2023/02/03 08:18:30;;;;;;;28.48;23.02;;;;;;;;;;5009143;28;20407;-82
2023/02/03 08:20:56;;;;;;;27.23;22.70;;;;;;;;;;5010011;28;20382;-81
2023/02/03 08:23:22;;;;;;;26.83;21.47;;;;;;;;;;5010643;28;20819;-80
2023/02/03 08:25:51;;;;;;;23.67;21.00;;;;;;;;;;5009755;28;20379;-81
2023/02/03 08:28:19;;;;;;;25.67;19.95;;;;;;;;;;4990593;28;20373;-80
2023/02/03 08:30:45;;;;;;;24.55;20.50;;;;;;;;;;4991223;28;20377;-81
2023/02/03 08:33:13;;;;;;;23.95;19.67;;;;;;;;;;5004901;28;20398;-80
2023/02/03 08:35:39;;;;;;;26.33;19.88;;;;;;;;;;5011198;28;20375;-80
2023/02/03 08:38:06;;;;;;;22.48;18.95;;;;;;;;;;5007338;28;20411;-80
2023/02/03 08:40:32;;;;;;;25.67;19.33;;;;;;;;;;5010560;28;20465;-82
2023/02/03 08:42:58;;;;;;;21.30;18.47;;;;;;;;;;5010522;28;20480;-81
2023/02/03 08:45:24;;;;;;;21.73;18.37;;;;;;;;;;5009415;28;20379;-81
2023/02/03 08:47:50;;;;;;;24.07;17.80;;;;;;;;;;5008011;28;20379;-80
2023/02/03 08:50:16;;;;;;;23.17;17.25;;;;;;;;;;5009970;28;20382;-81
2023/02/03 08:52:42;;;;;;;19.65;17.15;;;;;;;;;;5010597;28;20384;-79
2023/02/03 08:55:08;;;;;;;19.45;16.42;;;;;;;;;;5009587;28;20429;-81
2023/02/03 08:57:35;;;;;;;17.50;15.40;;;;;;;;;;5008652;28;20407;-81
2023/02/03 09:00:01;;;;;;;18.90;15.20;;;;;;;;;;5010392;28;20371;-80
2023/02/03 09:02:27;;;;;;;16.45;13.82;;;;;;;;;;5009741;28;20367;-80
2023/02/03 09:04:53;;;;;;;14.77;13.27;;;;;;;;;;5010065;28;20375;-80
2023/02/03 09:07:19;;;;;;;15.57;13.32;;;;;;;;;;5009549;28;20454;-80
2023/02/03 09:09:45;;;;;;;12.82;11.55;;;;;;;;;;5010076;28;20387;-82
2023/02/03 09:12:11;;;;;;;12.40;11.10;;;;;;;;;;5008438;28;20554;-81
2023/02/03 09:14:38;;;;;;;13.77;11.13;;;;;;;;;;5009647;28;20423;-81
2023/02/03 09:17:06;;;;;;;12.35;10.75;;;;;;;;;;5009069;28;21405;-81
2023/02/03 09:19:33;;;;;;;11.45;10.18;;;;;;;;;;5009477;28;20375;-82
2023/02/03 09:21:59;;;;;;;11.55;10.27;;;;;;;;;;5009219;28;20379;-82
2023/02/03 09:24:25;;;;;;;12.43;10.00;;;;;;;;;;5009459;28;20395;-81
2023/02/03 09:26:51;;;;;;;11.95;9.90;;;;;;;;;;5008951;28;20378;-82
2023/02/03 09:29:17;;;;;;;11.20;9.57;;;;;;;;;;5008522;28;20379;-80
2023/02/03 09:31:45;;;;;;;11.25;9.30;;;;;;;;;;5009322;28;20458;-75
2023/02/03 09:34:12;;;;;;;11.60;10.35;;;;;;;;;;5008356;28;20375;-81
2023/02/03 09:36:38;;;;;;;11.32;9.70;;;;;;;;;;5007471;28;20873;-81
2023/02/03 09:39:04;;;;;;;11.82;9.25;;;;;;;;;;5006496;28;20395;-80
2023/02/03 09:41:33;;;;;;;9.77;8.75;;;;;;;;;;5007584;28;20367;-80
2023/02/03 09:43:59;;;;;;;9.50;8.60;;;;;;;;;;5007627;28;20703;-81
2023/02/03 09:46:27;;;;;;;9.37;8.47;;;;;;;;;;5007908;28;20448;-80
2023/02/03 09:48:58;;;;;;;10.38;8.15;;;;;;;;;;5007875;28;20463;-80
2023/02/03 09:51:27;;;;;;;9.82;7.78;;;;;;;;;;5011464;28;20421;-80
2023/02/03 09:54:00;;;;;;;8.80;7.60;;;;;;;;;;5011767;28;20896;-81
2023/02/03 09:56:31;;;;;;;9.07;7.20;;;;;;;;;;5010592;28;20382;-81
2023/02/03 09:59:01;;;;;;;9.43;6.90;;;;;;;;;;5011622;28;20407;-82
2023/02/03 10:01:37;;;;;;;9.15;6.72;;;;;;;;;;5011926;28;20429;-82
2023/02/03 10:04:17;;;;;;;7.65;6.43;;;;;;;;;;5010724;28;21016;-82
2023/02/03 10:06:45;;;;;;;8.52;5.60;;;;;;;;;;5011018;28;20404;-81
2023/02/03 10:09:15;;;;;;;6.82;5.25;;;;;;;;;;5008576;28;20402;-81
2023/02/03 10:11:53;;;;;;;7.50;5.43;;;;;;;;;;5008488;28;20379;-80
2023/02/03 10:14:37;;;;;;;7.10;5.10;;;;;;;;;;5008872;28;20901;-80
2023/02/03 10:17:19;;;;;;;5.20;4.63;;;;;;;;;;5009473;28;20465;-80
2023/02/03 10:19:46;;;;;;;6.53;4.68;;;;;;;;;;5009223;28;20383;-81
2023/02/03 10:22:17;;;;;;;7.20;4.97;;;;;;;;;;4998401;28;20477;-80
2023/02/03 10:24:50;;;;;;;6.65;4.93;;;;;;;;;;5008463;28;20437;-80
2023/02/03 10:27:17;;;;;;;5.03;4.50;;;;;;;;;;5010515;28;20729;-81
2023/02/03 10:29:43;;;;;;;9.45;4.95;;;;;;;;;;5009026;28;20403;-80
2023/02/03 10:32:10;;;;;;;7.03;4.35;;;;;;;;;;5008092;28;20457;-79
2023/02/03 10:34:44;;;;;;;6.28;2.90;;;;;;;;;;5010546;28;20470;-80
2023/02/03 10:37:29;;;;;;;4.80;2.40;;;;;;;;;;5006250;28;20422;-80
2023/02/03 10:39:56;;;;;;;8.32;2.05;;;;;;;;;;5002953;28;20502;-80
2023/02/03 10:42:23;;;;;;;5.13;2.08;;;;;;;;;;5007824;28;20393;-80
2023/02/03 10:44:53;;;;;;;8.25;2.17;;;;;;;;;;5008889;28;20398;-80
2023/02/03 10:47:19;;;;;;;6.28;2.00;;;;;;;;;;4992417;28;20373;-80
2023/02/03 10:49:45;;;;;;;5.43;1.85;;;;;;;;;;4991951;28;20414;-80
2023/02/03 10:52:24;;;;;;;7.13;2.03;;;;;;;;;;4991311;28;20409;-79
2023/02/03 10:54:50;;;;;;;7.13;2.30;;;;;;;;;;4991390;28;20484;-79
2023/02/03 10:57:16;;;;;;;8.07;2.50;;;;;;;;;;4991867;28;20468;-81
2023/02/03 10:59:43;;;;;;;6.87;2.10;;;;;;;;;;5009516;28;20730;-80
2023/02/03 11:02:20;;;;;;;10.60;2.78;;;;;;;;;;5011045;28;20419;-79
2023/02/03 11:04:46;;;;;;;8.13;2.63;;;;;;;;;;5010097;28;20375;-80
2023/02/03 11:07:32;;;;;;;13.25;3.45;;;;;;;;;;5009961;28;20382;-79
2023/02/03 11:09:58;;;;;;;12.95;3.78;;;;;;;;;;5010569;28;20383;-79
2023/02/03 11:12:24;;;;;;;10.93;3.70;;;;;;;;;;5010423;28;20375;-79
2023/02/03 11:14:51;;;;;;;18.20;4.00;;;;;;;;;;5009608;28;20493;-80
2023/02/03 11:17:22;;;;;;;14.30;3.92;;;;;;;;;;5007457;28;20419;-80
2023/02/03 11:19:49;;;;;;;13.10;4.40;;;;;;;;;;5003716;28;20414;-80
2023/02/03 11:22:30;;;;;;;18.40;4.18;;;;;;;;;;5006475;28;20507;-81
2023/02/03 11:25:01;;;;;;;14.98;4.50;;;;;;;;;;5002813;28;20878;-80
2023/02/03 11:27:29;;;;;;;19.95;4.97;;;;;;;;;;5009027;28;20379;-81
2023/02/03 11:30:16;;;;;;;19.55;5.28;;;;;;;;;;5010697;28;20375;-81
2023/02/03 11:32:42;;;;;;;15.93;5.05;;;;;;;;;;5010252;28;20379;-80
2023/02/03 11:35:22;;;;;;;18.35;5.45;;;;;;;;;;5008470;28;20383;-81
2023/02/03 11:37:51;;;;;;;19.13;5.67;;;;;;;;;;5009690;28;20465;-79
2023/02/03 11:40:22;;;;;;;19.20;5.63;;;;;;;;;;5008802;28;20371;-79
2023/02/03 11:42:51;;;;;;;20.00;5.75;;;;;;;;;;4990069;28;20910;-82
2023/02/03 11:45:17;;;;;;;23.50;5.60;;;;;;;;;;4989178;28;20971;-79
2023/02/03 11:47:54;;;;;;;17.57;5.53;;;;;;;;;;4987558;28;20531;-80
2023/02/03 11:50:29;;;;;;;22.00;6.60;;;;;;;;;;4995005;28;20375;-80
2023/02/03 11:53:15;;;;;;;21.83;6.40;;;;;;;;;;5009957;28;20710;-80
2023/02/03 11:55:55;;;;;;;21.10;6.07;;;;;;;;;;5007871;28;20418;-80
2023/02/03 11:58:41;;;;;;;25.27;6.40;;;;;;;;;;5006742;28;20429;-80
2023/02/03 12:01:13;;;;;;;23.45;6.65;;;;;;;;;;5009575;28;20386;-81
2023/02/03 12:03:48;;;;;;;26.48;6.97;;;;;;;;;;5005242;28;20413;-80
2023/02/03 12:06:24;;;;;;;25.75;6.63;;;;;;;;;;5007029;28;20972;-80
2023/02/03 12:09:05;;;;;;;28.98;7.55;;;;;;;;;;5008437;28;20878;-81
2023/02/03 12:11:34;;;;;;;30.73;7.32;;;;;;;;;;4996372;28;20511;-80
2023/02/03 12:14:00;;;;;;;29.00;7.20;;;;;;;;;;5006960;28;20845;-80
2023/02/03 12:16:39;;;;;;;35.50;8.52;;;;;;;;;;5007909;28;20461;-80
2023/02/03 12:19:19;;;;;;;28.83;8.00;;;;;;;;;;4998199;28;20500;-80
2023/02/03 12:21:46;;;;;;;28.00;7.75;;;;;;;;;;4992360;28;20384;-80
2023/02/03 12:24:34;;;;;;;32.88;8.88;;;;;;;;;;4994372;28;20388;-80
2023/02/03 12:27:21;;;;;;;28.88;8.10;;;;;;;;;;4994662;28;20394;-79
2023/02/03 12:30:02;;;;;;;32.20;8.35;;;;;;;;;;4997029;28;20427;-79
2023/02/03 12:32:33;;;;;;;27.05;8.13;;;;;;;;;;4989453;28;20483;-79
2023/02/03 12:35:02;;;;;;;35.20;8.93;;;;;;;;;;4990773;28;20408;-81
2023/02/03 12:37:40;;;;;;;28.38;8.45;;;;;;;;;;5009661;28;20512;-82
2023/02/03 12:40:13;;;;;;;30.83;9.00;;;;;;;;;;5009582;28;20406;-81
2023/02/03 12:42:42;;;;;;;27.23;7.60;;;;;;;;;;5005845;28;20392;-82
2023/02/03 12:45:08;;;;;;;31.13;8.77;;;;;;;;;;4996244;28;20456;-81
2023/02/03 12:47:56;;;;;;;33.30;8.40;;;;;;;;;;4995617;28;20426;-81
2023/02/03 12:50:31;;;;;;;31.98;8.00;;;;;;;;;;4994988;28;20383;-79
2023/02/03 12:53:04;;;;;;;32.50;7.73;;;;;;;;;;4998473;28;20407;-80
2023/02/03 12:55:46;;;;;;;30.00;8.30;;;;;;;;;;4999295;28;20384;-80
2023/02/03 12:58:23;;;;;;;26.98;7.53;;;;;;;;;;4994473;28;20416;-80
2023/02/03 13:01:08;;;;;;;21.58;5.22;;;;;;;;;;4995372;28;20395;-80
2023/02/03 13:03:39;;;;;;;19.40;4.97;;;;;;;;;;4995298;28;20515;-81
2023/02/03 13:06:12;;;;;;;16.23;4.40;;;;;;;;;;5004311;28;20725;-80
2023/02/03 13:08:40;;;;;;;16.15;4.53;;;;;;;;;;4997827;28;20393;-80
2023/02/03 13:11:13;;;;;;;17.30;4.53;;;;;;;;;;4998098;28;20469;-80
2023/02/03 13:13:45;;;;;;;14.40;4.03;;;;;;;;;;5002279;28;20392;-81
2023/02/03 13:16:12;;;;;;;12.88;4.05;;;;;;;;;;5002226;28;20389;-81
2023/02/03 13:18:41;;;;;;;13.55;3.92;;;;;;;;;;5010892;28;20623;-81
2023/02/03 13:21:10;;;;;;;14.88;4.50;;;;;;;;;;5017503;28;20412;-82
2023/02/03 13:24:01;;;;;;;19.40;4.93;;;;;;;;;;5022065;28;20498;-84
2023/02/03 13:26:27;;;;;;;15.98;4.63;;;;;;;;;;5004598;28;20391;-81
2023/02/03 13:29:05;;;;;;;22.40;6.03;;;;;;;;;;5004556;28;20409;-82
2023/02/03 13:31:52;;;;;;;14.15;4.95;;;;;;;;;;5000232;28;20395;-80
2023/02/03 13:34:24;;;;;;;20.75;5.85;;;;;;;;;;4971053;28;20439;-80
2023/02/03 13:36:53;;;;;;;18.58;5.57;;;;;;;;;;4995197;28;20890;-80
2023/02/03 13:39:39;;;;;;;20.52;5.07;;;;;;;;;;4987716;28;20381;-81
2023/02/03 13:42:17;;;;;;;21.50;6.27;;;;;;;;;;4986797;28;20411;-79
2023/02/03 13:44:45;;;;;;;25.20;6.10;;;;;;;;;;4999820;28;20414;-80
2023/02/03 13:47:21;;;;;;;20.42;6.15;;;;;;;;;;4998256;28;20406;-80
2023/02/03 13:49:51;;;;;;;25.00;6.47;;;;;;;;;;4995751;28;20393;-79
2023/02/03 13:52:28;;;;;;;23.17;6.88;;;;;;;;;;4999362;28;20401;-79
2023/02/03 13:54:55;;;;;;;21.17;6.75;;;;;;;;;;4998463;28;20405;-80
2023/02/03 13:57:24;;;;;;;28.08;7.00;;;;;;;;;;4999964;28;20594;-79
2023/02/03 13:59:50;;;;;;;26.58;7.75;;;;;;;;;;4999298;28;20455;-80
2023/02/03 14:02:19;;;;;;;25.48;6.95;;;;;;;;;;4997585;28;20384;-81
2023/02/03 14:04:45;;;;;;;27.23;7.45;;;;;;;;;;4998340;28;20399;-80
2023/02/03 14:07:24;;;;;;;28.77;6.97;;;;;;;;;;4995634;28;20393;-80
2023/02/03 14:10:09;;;;;;;30.92;7.88;;;;;;;;;;4997878;28;20498;-80
2023/02/03 14:12:36;;;;;;;28.75;7.45;;;;;;;;;;4997195;28;20411;-81
2023/02/03 14:15:22;;;;;;;27.15;7.47;;;;;;;;;;4997495;28;20377;-80
2023/02/03 14:18:15;;;;;;;32.15;9.15;;;;;;;;;;4995843;28;20509;-82
2023/02/03 14:20:42;;;;;;;28.40;8.25;;;;;;;;;;4970957;28;20400;-80
2023/02/03 14:23:12;;;;;;;42.90;9.77;;;;;;;;;;4994047;28;20467;-80
2023/02/03 14:25:47;;;;;;;37.53;10.30;;;;;;;;;;4997503;28;20391;-81
2023/02/03 14:28:15;;;;;;;36.05;9.20;;;;;;;;;;4997942;28;20882;-80
2023/02/03 14:31:00;;;;;;;43.07;10.57;;;;;;;;;;4993941;28;20477;-80
2023/02/03 14:33:46;;;;;;;37.28;10.65;;;;;;;;;;4999075;28;20379;-81
2023/02/03 14:36:30;;;;;;;36.67;9.93;;;;;;;;;;4991064;28;20474;-81
2023/02/03 14:38:58;;;;;;;40.97;9.30;;;;;;;;;;5000260;28;20516;-80
2023/02/03 14:41:35;;;;;;;39.65;10.40;;;;;;;;;;4998454;28;20400;-79
2023/02/03 14:44:10;;;;;;;34.85;8.95;;;;;;;;;;5002193;28;20403;-80